Time;durP1;ratioP1;P1;durP2;ratioP2;P2;SDS_P1;SDS_P2;PMS_P1;PMS_P2;Temp;Humidity;BMP_temperature;BMP_pressure;BME280_temperature;BME280_humidity;BME280_pressure;Samples;Min_cycle;Max_cycle;Signal;HPM_P1;HPM_P2
2022/10/03 00:01:41;;;;;;;5.40;4.43;;;12.50;85.90;;;10.90;100.00;96647.25;4980232;28;20028;-69
2022/10/03 00:04:35;;;;;;;5.22;4.35;;;12.40;85.90;;;10.84;100.00;96651.41;4949177;28;20150;-68
2022/10/03 00:07:36;;;;;;;5.90;4.75;;;12.40;86.00;;;10.77;100.00;96654.91;4982240;28;20129;-68
2022/10/03 00:10:32;;;;;;;6.43;4.68;;;12.30;86.00;;;10.70;100.00;96670.59;4956790;28;20039;-68
2022/10/03 00:13:19;;;;;;;5.38;4.88;;;12.20;86.00;;;10.64;100.00;96666.06;4956118;28;20031;-69
2022/10/03 00:16:00;;;;;;;6.25;4.85;;;12.20;86.10;;;10.59;100.00;96678.88;4986516;28;20446;-68
2022/10/03 00:18:34;;;;;;;6.55;4.97;;;12.10;86.20;;;10.54;100.00;96678.59;4955378;28;20041;-66
2022/10/03 00:21:46;;;;;;;5.13;4.63;;;12.10;86.10;;;10.47;100.00;96683.75;4975328;28;20047;-66
2022/10/03 00:24:39;;;;;;;6.10;4.50;;;12.00;86.00;;;10.41;100.00;96685.25;4970019;28;20031;-66
2022/10/03 00:27:30;;;;;;;5.82;5.20;;;11.90;86.10;;;10.37;100.00;96678.69;4942722;28;20455;-67
2022/10/03 00:30:19;;;;;;;;;;;11.80;86.00;;;10.32;100.00;96688.91;4961714;28;20213;-66
2022/10/03 00:32:48;;;;;;;8.13;5.82;;;11.80;86.00;;;10.28;100.00;96692.88;4961577;28;19922;-67
2022/10/03 00:35:45;;;;;;;8.57;5.00;;;11.80;86.00;;;10.23;100.00;96697.84;4962585;28;20050;-66
2022/10/03 00:38:29;;;;;;;7.70;5.63;;;11.70;85.90;;;10.20;100.00;96700.78;4946128;28;20044;-67
2022/10/03 00:41:36;;;;;;;7.38;5.50;;;11.70;86.00;;;10.15;100.00;96692.56;4959690;28;20039;-66
2022/10/03 00:44:20;;;;;;;5.68;5.18;;;11.60;86.00;;;10.09;100.00;96703.78;4953914;28;20512;-67
2022/10/03 00:47:14;;;;;;;9.45;5.78;;;11.60;86.00;;;10.05;100.00;96705.13;4956920;28;20425;-67
2022/10/03 00:50:05;;;;;;;7.35;5.00;;;11.60;86.00;;;10.02;100.00;96708.91;4944924;28;20038;-66
2022/10/03 00:53:06;;;;;;;7.55;5.47;;;11.50;86.00;;;9.97;100.00;96718.31;4962333;28;20077;-67
2022/10/03 00:56:00;;;;;;;9.65;6.10;;;11.50;86.10;;;9.93;100.00;96714.34;4965765;28;22337;-67
2022/10/03 00:58:41;;;;;;;8.55;5.85;;;11.40;86.50;;;9.91;100.00;96711.06;4956372;28;20047;-67
2022/10/03 01:01:43;;;;;;;9.02;6.10;;;11.40;86.50;;;9.89;100.00;96707.81;4941553;28;20043;-67
2022/10/03 01:04:30;;;;;;;6.72;5.75;;;11.40;86.60;;;9.85;100.00;96711.75;4944323;28;20492;-67
2022/10/03 01:07:55;;;;;;;10.68;6.40;;;11.30;86.60;;;9.82;100.00;96712.91;4948972;28;20031;-66
2022/10/03 01:11:08;;;;;;;9.75;6.45;;;11.30;86.80;;;9.80;100.00;96710.47;4978840;28;20038;-66
2022/10/03 01:13:41;;;;;;;9.93;6.50;;;11.30;86.90;;;9.76;100.00;96714.41;4942950;28;20046;-66
2022/10/03 01:16:19;;;;;;;9.98;7.30;;;11.30;86.90;;;9.75;100.00;96712.78;4957458;28;20415;-67
2022/10/03 01:19:04;;;;;;;10.35;7.72;;;11.30;87.00;;;9.74;100.00;96723.47;4951257;28;20027;-67
2022/10/03 01:21:43;;;;;;;10.52;7.47;;;11.20;87.30;;;9.73;100.00;96720.03;4964612;28;20556;-67
2022/10/03 01:24:21;;;;;;;14.02;7.40;;;11.20;87.50;;;9.76;100.00;96718.84;4950099;28;20133;-68
2022/10/03 01:26:54;;;;;;;9.70;7.57;;;11.30;87.60;;;9.77;100.00;96716.06;4959436;28;20062;-67
2022/10/03 01:32:34;;;;;;;9.50;7.35;;;11.40;87.70;;;9.86;100.00;96729.16;4964725;28;20070;-67
2022/10/03 01:35:21;;;;;;;9.82;8.05;;;11.50;87.60;;;9.90;100.00;96725.19;4964093;28;20035;-67
2022/10/03 01:38:18;;;;;;;12.10;7.63;;;11.50;87.60;;;9.94;100.00;96726.50;4964945;28;20062;-67
2022/10/03 01:40:49;;;;;;;10.57;8.68;;;11.60;87.60;;;10.00;100.00;96733.72;4953862;28;20428;-67
2022/10/03 01:43:19;;;;;;;9.98;8.07;;;11.60;87.50;;;10.01;100.00;96725.69;4969942;28;20128;-66
2022/10/03 01:46:04;;;;;;;9.77;7.43;;;11.60;87.30;;;10.06;100.00;96735.66;4947373;28;20034;-67
2022/10/03 01:49:11;;;;;;;10.93;7.95;;;11.60;87.20;;;10.07;100.00;96739.94;4959658;28;20114;-67
2022/10/03 01:51:59;;;;;;;12.25;8.55;;;11.60;87.10;;;10.07;100.00;96732.88;5004448;28;20031;-67
2022/10/03 01:54:55;;;;;;;11.55;8.10;;;11.60;86.90;;;10.08;100.00;96736.31;4953211;28;20035;-67
2022/10/03 01:57:45;;;;;;;14.40;8.88;;;11.60;87.10;;;10.07;100.00;96745.19;4958091;28;20036;-67
2022/10/03 02:00:17;;;;;;;10.07;8.43;;;11.70;86.80;;;10.08;100.00;96749.47;4979404;28;20054;-67
2022/10/03 02:03:00;;;;;;;9.35;7.50;;;11.70;86.80;;;10.09;100.00;96751.09;4970666;28;20101;-67
2022/10/03 02:05:54;;;;;;;10.30;8.57;;;11.70;86.80;;;10.10;100.00;96752.75;4944471;28;20055;-68
2022/10/03 02:08:34;;;;;;;12.50;8.30;;;11.70;86.50;;;10.09;100.00;96751.91;4955191;28;20122;-67
2022/10/03 02:11:08;;;;;;;11.85;8.80;;;11.70;86.60;;;10.08;100.00;96757.34;4942787;28;20027;-67
2022/10/03 02:13:45;;;;;;;11.98;8.23;;;11.70;86.50;;;10.05;100.00;96753.25;4937762;28;20065;-67
2022/10/03 02:16:32;;;;;;;10.45;8.07;;;11.60;86.40;;;10.06;100.00;96756.69;4962914;28;20035;-68
2022/10/03 02:19:19;;;;;;;10.60;7.65;;;11.60;86.30;;;10.02;100.00;96753.59;4958696;28;20189;-67
2022/10/03 02:21:51;;;;;;;11.15;8.40;;;11.60;86.30;;;9.97;100.00;96749.84;4955343;28;20079;-67
2022/10/03 02:24:35;;;;;;;10.82;8.48;;;11.60;86.20;;;9.93;100.00;96751.97;4922912;28;20554;-67
2022/10/03 02:27:12;;;;;;;12.18;8.45;;;11.50;86.20;;;9.90;100.00;96746.22;4962822;28;20038;-67
2022/10/03 02:29:47;;;;;;;14.55;9.15;;;11.40;86.30;;;9.86;100.00;96751.00;4952892;28;20698;-67
2022/10/03 02:32:57;;;;;;;13.07;9.32;;;11.40;86.30;;;9.81;100.00;96754.13;4961424;28;20031;-68
2022/10/03 02:35:42;;;;;;;11.52;8.18;;;11.40;86.30;;;9.75;100.00;96746.94;4962657;28;20049;-67
2022/10/03 02:38:44;;;;;;;11.02;8.18;;;11.30;86.50;;;9.73;100.00;96759.44;4953024;28;20672;-67
2022/10/03 02:41:54;;;;;;;10.23;8.00;;;11.30;86.50;;;9.69;100.00;96760.72;4972660;28;20057;-68
2022/10/03 02:44:35;;;;;;;11.68;8.98;;;11.20;86.50;;;9.65;100.00;96754.16;4954483;28;20058;-68
2022/10/03 02:47:43;;;;;;;11.27;8.43;;;11.20;86.50;;;9.62;100.00;96758.94;4961880;28;20704;-67
2022/10/03 02:50:48;;;;;;;10.57;8.68;;;11.10;86.50;;;9.58;100.00;96758.47;4955585;28;20126;-67
2022/10/03 02:54:03;;;;;;;12.93;8.63;;;11.10;86.60;;;9.52;100.00;96764.38;4950992;28;20118;-67
2022/10/03 02:57:04;;;;;;;14.90;8.60;;;11.10;86.60;;;9.48;100.00;96768.28;4944794;28;20392;-67
2022/10/03 02:59:40;;;;;;;;;;;11.00;86.60;;;9.43;100.00;96766.19;4974139;28;20072;-67
2022/10/03 03:02:31;;;;;;;12.60;9.23;;;11.00;86.50;;;9.41;100.00;96776.03;4959050;28;19923;-67
2022/10/03 03:05:25;;;;;;;13.40;9.07;;;10.90;86.60;;;9.38;100.00;96778.16;4965135;28;20133;-67
2022/10/03 03:08:33;;;;;;;13.27;8.98;;;10.90;86.50;;;9.35;100.00;96783.75;4957368;28;20122;-68
2022/10/03 03:11:42;;;;;;;13.45;9.50;;;10.90;86.60;;;9.33;100.00;96785.72;4957853;28;20027;-67
2022/10/03 03:14:21;;;;;;;13.10;9.35;;;10.90;86.60;;;9.32;100.00;96784.09;4962147;28;20109;-67
2022/10/03 03:17:07;;;;;;;11.63;8.40;;;10.90;86.70;;;9.32;100.00;96792.78;4961812;28;20105;-68
2022/10/03 03:20:05;;;;;;;13.63;9.30;;;10.90;86.60;;;9.33;100.00;96785.72;4963135;28;20035;-68
2022/10/03 03:23:49;;;;;;;12.15;9.65;;;10.90;86.70;;;9.33;100.00;96790.97;4958129;28;20031;-68
2022/10/03 03:26:58;;;;;;;16.38;9.70;;;10.90;86.90;;;9.32;100.00;96784.09;4931785;28;20384;-67
2022/10/03 03:29:42;;;;;;;12.80;10.23;;;10.90;86.90;;;9.30;100.00;96794.75;4970879;28;20062;-68
2022/10/03 03:32:30;;;;;;;12.40;9.80;;;10.90;86.80;;;9.28;100.00;96790.63;4947288;28;20441;-69
2022/10/03 03:35:13;;;;;;;14.15;9.65;;;10.90;86.70;;;9.28;100.00;96790.63;4959117;28;20115;-68
2022/10/03 03:37:51;;;;;;;14.93;10.73;;;10.80;87.00;;;9.26;100.00;96790.78;4948841;28;20047;-67
2022/10/03 03:40:37;;;;;;;11.65;9.23;;;10.80;87.10;;;9.26;100.00;96797.84;4957766;28;20054;-67
2022/10/03 03:43:43;;;;;;;63.20;48.80;;;10.80;87.00;;;9.24;100.00;96798.00;4957246;28;20043;-67
2022/10/03 03:46:25;;;;;;;43.85;32.03;;;10.80;86.80;;;9.23;100.00;96800.78;4942481;28;20058;-68
2022/10/03 03:49:15;;;;;;;44.88;34.63;;;10.80;86.60;;;9.19;100.00;96806.38;4957461;28;20100;-67
2022/10/03 03:52:27;;;;;;;50.97;40.45;;;10.80;86.60;;;9.17;100.00;96808.34;4978393;28;20038;-67
2022/10/03 03:55:17;;;;;;;17.58;12.52;;;10.70;86.60;;;9.13;100.00;96809.66;4956830;28;20145;-69
2022/10/03 03:58:15;;;;;;;15.48;10.07;;;10.70;86.30;;;9.08;100.00;96814.56;5042369;28;20498;-67
2022/10/03 04:01:15;;;;;;;15.45;10.43;;;10.60;86.20;;;9.04;100.00;96805.38;4954017;28;20088;-68
2022/10/03 04:04:11;;;;;;;13.68;9.65;;;10.60;86.10;;;8.99;100.00;96809.47;4948652;28;20062;-69
2022/10/03 04:06:53;;;;;;;13.85;9.80;;;10.60;86.10;;;8.95;100.00;96811.59;4963119;28;20514;-68
2022/10/03 04:09:27;;;;;;;13.23;9.18;;;10.50;86.10;;;8.92;100.00;96819.78;4968073;28;20402;-67
2022/10/03 04:12:18;;;;;;;15.30;9.80;;;10.40;86.40;;;8.90;100.00;96808.63;4954174;28;20118;-67
2022/10/03 04:15:19;;;;;;;69.15;48.10;;;10.50;86.30;;;8.89;100.00;96815.69;4953644;28;20061;-67
2022/10/03 04:21:29;;;;;;;19.27;13.65;;;10.40;86.30;;;8.81;100.00;96814.81;4959611;28;19929;-66
2022/10/03 04:24:22;;;;;;;13.20;10.18;;;10.40;86.40;;;8.79;100.00;96808.91;4953823;28;20072;-67
2022/10/03 04:27:00;;;;;;;15.77;10.10;;;10.40;86.30;;;8.76;100.00;96817.13;4961050;28;20491;-68
2022/10/03 04:29:32;;;;;;;71.50;55.05;;;10.30;86.40;;;8.76;100.00;96819.75;4953165;28;20035;-68
2022/10/03 04:32:40;;;;;;;116.97;94.35;;;10.30;86.90;;;8.77;100.00;96819.56;5031695;28;20029;-68
2022/10/03 04:35:36;;;;;;;80.55;63.28;;;10.40;87.00;;;8.79;100.00;96819.41;4961353;28;20196;-68
2022/10/03 04:38:20;;;;;;;55.42;39.53;;;10.40;87.10;;;8.78;100.00;96818.59;4969064;28;20410;-67
2022/10/03 04:41:11;;;;;;;40.40;33.15;;;10.40;86.80;;;8.79;100.00;96815.00;4959622;28;20040;-67
2022/10/03 04:43:53;;;;;;;29.10;21.63;;;10.50;86.80;;;8.82;100.00;96814.66;4948496;28;20027;-67
2022/10/03 04:46:41;;;;;;;47.95;37.72;;;10.50;86.60;;;8.84;100.00;96817.97;4956983;28;20055;-68
2022/10/03 04:49:41;;;;;;;20.73;16.92;;;10.50;86.40;;;8.84;100.00;96812.72;4952060;28;20046;-68
2022/10/03 04:52:32;;;;;;;24.90;19.35;;;10.50;86.10;;;8.84;100.00;96817.97;4966281;28;20054;-67
2022/10/03 04:55:14;;;;;;;57.05;41.08;;;10.50;86.10;;;8.84;100.00;96807.47;4965420;28;20035;-67
2022/10/03 04:58:00;;;;;;;39.00;31.23;;;10.50;86.20;;;8.85;100.00;96808.31;4966154;28;20430;-67
2022/10/03 05:00:55;;;;;;;18.58;14.38;;;10.50;86.30;;;8.90;100.00;96816.50;4925545;28;20034;-68
2022/10/03 05:03:50;;;;;;;12.48;9.90;;;10.60;86.40;;;8.88;100.00;96819.28;4981017;28;20034;-67
2022/10/03 05:06:30;;;;;;;12.13;9.57;;;10.60;86.20;;;8.91;100.00;96818.16;4965750;28;20106;-68
2022/10/03 05:09:32;;;;;;;15.55;10.07;;;10.60;86.00;;;8.91;100.00;96820.78;4927956;28;20091;-67
2022/10/03 05:12:41;;;;;;;11.57;9.60;;;10.60;86.00;;;8.94;100.00;96819.63;4945030;28;20453;-68
2022/10/03 05:15:10;;;;;;;73.43;57.05;;;10.60;86.30;;;8.94;100.00;96823.06;4947691;28;20503;-69
2022/10/03 05:18:03;;;;;;;48.63;36.92;;;10.60;86.30;;;8.93;100.00;96815.38;4958161;28;20510;-69
2022/10/03 05:20:51;;;;;;;36.03;28.33;;;10.60;85.60;;;8.92;100.00;96813.72;4967330;28;20035;-71
2022/10/03 05:23:50;;;;;;;24.38;17.52;;;10.60;85.90;;;8.90;100.00;96827.00;4955811;28;20054;-73
2022/10/03 05:26:30;;;;;;;80.53;60.42;;;10.50;85.20;;;8.87;100.00;96827.31;4969030;28;20133;-72
2022/10/03 05:29:33;;;;;;;44.72;35.25;;;10.50;85.20;;;8.83;100.00;96820.75;4956344;28;20105;-69
2022/10/03 05:32:14;;;;;;;39.70;31.60;;;10.50;85.20;;;8.80;100.00;96826.31;4970659;28;20031;-69
2022/10/03 05:35:05;;;;;;;;;;;10.50;85.20;;;8.76;100.00;96830.22;5010355;28;20040;-72
2022/10/03 05:37:59;;;;;;;16.02;12.77;;;10.40;85.30;;;8.73;100.00;96846.28;5038438;28;20062;-68
2022/10/03 05:40:26;;;;;;;15.27;10.35;;;10.30;85.20;;;8.71;100.00;96843.81;4973748;28;20423;-68
2022/10/03 05:43:43;;;;;;;13.10;9.60;;;10.30;85.20;;;8.71;100.00;96851.69;5033467;28;20031;-68
2022/10/03 05:46:39;;;;;;;13.35;9.02;;;10.30;85.10;;;8.70;100.00;96851.84;4965502;28;20035;-68
2022/10/03 05:49:52;;;;;;;13.25;8.48;;;10.30;85.00;;;8.68;100.00;96859.88;4963730;28;20035;-68
2022/10/03 05:52:43;;;;;;;11.70;8.98;;;10.40;85.10;;;8.70;100.00;96862.34;4974821;28;20451;-68
2022/10/03 05:55:24;;;;;;;13.23;9.52;;;10.40;85.60;;;8.75;100.00;96867.94;4969361;28;20039;-67
2022/10/03 05:58:10;;;;;;;15.93;10.27;;;10.50;86.00;;;8.78;100.00;96859.75;4969439;28;20085;-67
2022/10/03 06:01:24;;;;;;;13.07;9.93;;;10.50;86.20;;;8.84;100.00;96864.38;4984818;28;20047;-67
2022/10/03 06:04:14;;;;;;;13.38;9.95;;;10.60;86.40;;;8.90;100.00;96863.72;4991184;28;20245;-67
2022/10/03 06:07:22;;;;;;;13.70;9.27;;;10.60;86.20;;;8.95;100.00;96877.19;4950569;28;20028;-67
2022/10/03 06:10:26;;;;;;;14.27;10.38;;;10.70;86.30;;;9.01;100.00;96868.66;4995938;28;20031;-72
2022/10/03 06:13:19;;;;;;;11.90;9.27;;;10.80;86.30;;;9.08;100.00;96879.38;5038463;28;20127;-70
2022/10/03 06:15:53;;;;;;;12.48;10.40;;;10.80;86.10;;;9.11;100.00;96882.50;4997996;28;20043;-71
2022/10/03 06:18:43;;;;;;;11.73;9.95;;;10.90;86.30;;;9.18;100.00;96882.66;4965926;28;20149;-68
2022/10/03 06:21:22;;;;;;;14.13;9.57;;;11.00;86.30;;;9.25;100.00;96882.81;4975091;28;20035;-68
2022/10/03 06:24:05;;;;;;;14.57;10.45;;;11.10;85.80;;;9.32;100.00;96894.34;4963030;28;20063;-68
2022/10/03 06:27:08;;;;;;;14.13;9.85;;;11.20;85.80;;;9.37;100.00;96892.06;5006086;28;20130;-67
2022/10/03 06:30:19;;;;;;;14.50;10.50;;;11.30;85.70;;;9.51;100.00;96897.50;4966323;28;20121;-68
2022/10/03 06:33:34;;;;;;;16.25;10.43;;;11.50;85.70;;;9.60;100.00;96895.69;4959944;28;20027;-67
2022/10/03 06:36:32;;;;;;;15.95;10.57;;;11.60;84.80;;;9.70;100.00;96898.97;4967071;28;20110;-68
2022/10/03 06:39:34;;;;;;;13.77;11.30;;;11.80;84.80;;;9.82;100.00;96905.56;5016163;28;20392;-68
2022/10/03 06:42:56;;;;;;;12.50;10.75;;;11.90;84.70;;;9.93;100.00;96908.81;5048712;28;20039;-67
2022/10/03 06:45:52;;;;;;;17.60;10.45;;;12.00;84.30;;;9.98;100.00;96906.53;4963437;28;20552;-70
2022/10/03 06:49:15;;;;;;;16.25;11.15;;;11.90;84.70;;;10.02;100.00;96907.84;4966417;28;20042;-69
2022/10/03 06:51:59;;;;;;;14.48;11.10;;;11.80;84.50;;;10.06;100.00;96909.16;5006292;28;20029;-68
2022/10/03 06:55:14;;;;;;;13.43;10.25;;;11.90;84.80;;;10.09;100.00;96914.06;5040512;28;20053;-69
2022/10/03 06:58:10;;;;;;;14.68;10.02;;;11.80;84.90;;;10.14;100.00;96917.03;4959206;28;20390;-69
2022/10/03 07:01:06;;;;;;;18.48;11.38;;;12.00;85.00;;;10.19;100.00;96925.25;4991213;28;20469;-65
2022/10/03 07:03:50;;;;;;;16.95;11.00;;;12.10;84.10;;;10.25;100.00;96923.78;4999985;28;20031;-65
2022/10/03 07:06:34;;;;;;;15.85;10.20;;;12.10;84.00;;;10.30;100.00;96924.09;4965689;28;20061;-70
2022/10/03 07:09:15;;;;;;;12.60;10.35;;;12.10;84.10;;;10.33;100.00;96921.97;4948393;28;20051;-69
2022/10/03 07:12:32;;;;;;;14.45;10.02;;;12.20;83.90;;;10.40;100.00;96922.09;4976189;28;20508;-66
2022/10/03 07:15:26;;;;;;;46.53;35.70;;;12.20;84.40;;;10.45;100.00;96922.44;4964970;28;20053;-71
2022/10/03 07:18:30;;;;;;;36.63;28.08;;;12.20;83.90;;;10.53;100.00;96922.41;4963128;28;20042;-67
2022/10/03 07:21:25;;;;;;;12.88;10.40;;;12.40;83.70;;;10.60;100.00;96927.81;4952273;28;20401;-67
2022/10/03 07:24:24;;;;;;;15.82;10.60;;;12.50;83.50;;;10.66;100.00;96929.78;4985157;28;20042;-68
2022/10/03 07:27:00;;;;;;;11.38;9.60;;;12.80;82.50;;;10.82;100.00;96924.47;5056275;28;20029;-68
2022/10/03 07:30:22;;;;;;;11.35;9.25;;;13.40;81.50;;;11.08;100.00;96926.00;4968648;28;20041;-68
2022/10/03 07:33:36;;;;;;;10.85;8.52;;;13.90;79.30;;;11.33;100.00;96928.38;4945671;28;20046;-67
2022/10/03 07:39:48;;;;;;;10.20;8.18;;;14.10;78.90;;;11.65;100.00;96939.69;5004637;28;20177;-69
2022/10/03 07:42:39;;;;;;;12.15;7.53;;;13.90;78.50;;;11.78;100.00;96939.13;5004153;28;20047;-69
2022/10/03 07:45:31;;;;;;;9.13;7.45;;;14.30;78.10;;;11.92;100.00;96941.81;5016865;28;20048;-68
2022/10/03 07:48:18;;;;;;;11.70;8.10;;;14.40;76.90;;;11.99;100.00;96936.66;4962335;28;20038;-67
2022/10/03 07:51:16;;;;;;;10.13;8.10;;;14.20;77.70;;;12.06;100.00;96945.53;4992146;28;20120;-66
2022/10/03 07:54:19;;;;;;;11.43;7.90;;;14.20;78.10;;;12.17;100.00;96939.81;4937761;28;20105;-68
2022/10/03 07:57:49;;;;;;;13.20;8.15;;;14.30;77.30;;;12.18;100.00;96940.63;5022985;28;20140;-70
2022/10/03 08:00:23;;;;;;;10.60;7.38;;;14.20;77.70;;;12.19;100.00;96948.34;4959224;28;20047;-68
2022/10/03 08:03:07;;;;;;;10.35;7.55;;;14.20;77.60;;;12.22;100.00;96942.75;4951774;28;20035;-67
2022/10/03 08:05:57;;;;;;;10.93;7.93;;;14.10;77.70;;;12.23;100.00;96943.56;4966962;28;20041;-69
2022/10/03 08:08:35;;;;;;;9.05;7.13;;;14.10;78.00;;;12.26;100.00;96944.03;4997021;28;20042;-69
2022/10/03 08:11:28;;;;;;;14.20;7.60;;;14.50;76.70;;;12.31;100.00;96950.59;5017129;28;20036;-68
2022/10/03 08:14:31;;;;;;;10.43;8.10;;;14.20;77.80;;;12.32;100.00;96952.22;5069507;28;20415;-69
2022/10/03 08:17:09;;;;;;;10.80;8.10;;;14.10;77.90;;;12.30;100.00;96943.66;4995727;28;20222;-68
2022/10/03 08:19:56;;;;;;;10.13;7.97;;;14.30;78.40;;;12.37;100.00;96955.97;4979422;28;20484;-68
2022/10/03 08:22:57;;;;;;;10.20;7.30;;;14.30;78.00;;;12.37;100.00;96953.31;4976281;28;20035;-68
2022/10/03 08:26:19;;;;;;;10.90;7.10;;;14.20;77.50;;;12.41;100.00;96966.97;5034156;28;20031;-68
2022/10/03 08:28:50;;;;;;;12.07;7.22;;;14.30;77.70;;;12.44;100.00;96963.97;5059656;28;20028;-67
2022/10/03 08:31:46;;;;;;;9.80;8.25;;;14.50;77.40;;;12.54;100.00;96968.00;5073475;28;20120;-68
2022/10/03 08:34:49;;;;;;;8.15;7.25;;;14.70;77.10;;;12.58;100.00;96971.09;5007441;28;20032;-70
2022/10/03 08:37:44;;;;;;;12.38;7.30;;;14.60;75.90;;;12.46;100.00;96965.47;5059304;28;20107;-69
2022/10/03 08:40:19;;;;;;;9.52;7.35;;;14.10;77.40;;;12.40;100.00;96962.69;5055861;28;20538;-68
2022/10/03 08:43:40;;;;;;;13.98;7.20;;;14.10;77.90;;;12.44;100.00;96963.97;5052045;28;20680;-67
2022/10/03 08:47:00;;;;;;;10.35;7.00;;;14.50;76.30;;;12.60;100.00;96977.03;5016233;28;20039;-69
2022/10/03 08:49:50;;;;;;;9.65;7.18;;;14.80;75.20;;;12.68;100.00;96973.50;4968220;28;20039;-69
2022/10/03 08:52:34;;;;;;;10.88;7.28;;;15.00;75.60;;;12.85;100.00;96981.03;4971211;28;20510;-68
2022/10/03 08:55:54;;;;;;;12.45;7.18;;;15.30;76.00;;;12.99;100.00;96987.34;5007598;28;20048;-67
2022/10/03 08:58:53;;;;;;;13.00;6.18;;;15.10;75.00;;;13.05;100.00;96981.31;4951764;28;20036;-69
2022/10/03 09:01:32;;;;;;;14.35;6.25;;;15.10;74.10;;;13.08;100.00;96988.88;4952373;28;20126;-70
2022/10/03 09:04:45;;;;;;;9.40;5.82;;;15.00;74.20;;;13.11;100.00;96985.88;5002053;28;20090;-69
2022/10/03 09:07:33;;;;;;;11.95;6.40;;;15.00;74.20;;;13.06;100.00;96988.25;5052456;28;20622;-69
2022/10/03 09:10:35;;;;;;;11.00;6.30;;;14.80;75.00;;;13.12;100.00;96984.03;5061297;28;20033;-69
2022/10/03 09:13:31;;;;;;;9.20;5.43;;;15.10;74.20;;;13.18;100.00;96983.38;5041462;28;20031;-69
2022/10/03 09:16:19;;;;;;;10.02;6.00;;;15.30;73.10;;;13.26;100.00;96977.97;5027132;28;20414;-68
2022/10/03 09:19:09;;;;;;;11.80;5.80;;;15.30;72.90;;;13.37;100.00;96974.88;4963369;28;20027;-70
2022/10/03 09:21:44;;;;;;;9.18;5.40;;;15.60;73.90;;;13.45;100.00;96982.69;4970727;28;20050;-69
2022/10/03 09:24:37;;;;;;;9.52;5.35;;;15.60;72.30;;;13.54;100.00;96987.84;5026631;28;20036;-69
2022/10/03 09:27:30;;;;;;;12.70;6.38;;;15.60;70.70;;;13.47;100.00;96974.56;5049686;28;20033;-68
2022/10/03 09:30:25;;;;;;;8.50;6.18;;;15.50;70.40;;;13.54;100.00;96974.63;5056145;28;20136;-68
2022/10/03 09:33:28;;;;;;;11.30;6.00;;;15.80;71.00;;;13.66;100.00;96981.09;5020256;28;20035;-67
2022/10/03 09:36:24;;;;;;;12.13;5.60;;;16.00;69.00;;;13.78;100.00;96982.22;5044978;28;20048;-68
2022/10/03 09:39:36;;;;;;;9.35;5.50;;;16.10;69.70;;;13.89;100.00;96981.75;5046977;28;20035;-66
2022/10/03 09:42:32;;;;;;;8.13;4.53;;;16.10;69.70;;;14.07;100.00;96982.16;4972674;28;20118;-70
2022/10/03 09:45:35;;;;;;;11.70;4.93;;;16.60;68.50;;;14.41;100.00;96978.78;4972768;28;20069;-69
2022/10/03 09:48:10;;;;;;;8.65;4.28;;;17.70;66.10;;;14.80;100.00;96976.66;4968570;28;20035;-70
2022/10/03 09:51:05;;;;;;;8.77;4.38;;;18.20;61.40;;;15.03;100.00;96971.91;5006445;28;20032;-70
2022/10/03 09:54:04;;;;;;;9.25;4.28;;;18.10;63.40;;;15.21;100.00;96966.91;5017946;28;20029;-70
2022/10/03 09:57:03;;;;;;;8.55;4.13;;;17.90;62.20;;;15.23;100.00;96964.88;5049682;28;20443;-70
2022/10/03 09:59:59;;;;;;;9.35;4.65;;;17.30;63.60;;;15.26;100.00;96961.00;4966678;28;20042;-70
2022/10/03 10:03:26;;;;;;;7.15;4.07;;;17.50;65.50;;;15.51;100.00;96970.09;4978159;28;20240;-70
2022/10/03 10:06:20;;;;;;;5.85;4.00;;;18.50;62.30;;;15.78;100.00;96965.72;4983947;28;20027;-71
2022/10/03 10:09:06;;;;;;;9.60;3.75;;;18.90;59.70;;;15.96;98.72;96966.97;4977485;28;20096;-69
2022/10/03 10:12:00;;;;;;;12.10;3.60;;;18.80;59.40;;;16.08;94.68;96966.19;4957602;28;20028;-73
2022/10/03 10:15:03;;;;;;;9.88;4.32;;;18.60;58.40;;;16.17;96.19;96969.47;4975376;28;20050;-77
2022/10/03 10:17:53;;;;;;;9.63;4.13;;;18.70;59.30;;;16.26;97.06;96954.13;4971950;28;20042;-73
2022/10/03 10:21:08;;;;;;;10.50;3.97;;;18.90;60.10;;;16.35;93.13;96960.91;4963619;28;20728;-75
2022/10/03 10:23:51;;;;;;;14.98;8.48;;;18.90;58.70;;;16.33;95.72;96958.44;4956289;28;20039;-76
2022/10/03 10:26:54;;;;;;;14.88;11.20;;;18.70;59.90;;;16.32;92.48;96954.16;4981859;28;20508;-70
2022/10/03 10:30:07;;;;;;;8.82;3.70;;;18.70;59.30;;;16.35;91.32;96955.59;4974045;28;20084;-73
2022/10/03 10:33:18;;;;;;;6.90;3.40;;;18.70;58.30;;;16.52;88.80;96952.31;5018409;28;20106;-74
2022/10/03 10:36:38;;;;;;;6.85;3.25;;;19.40;55.10;;;16.57;88.67;96949.03;5018754;28;20077;-72
2022/10/03 10:39:38;;;;;;;7.20;3.13;;;19.10;56.30;;;16.60;89.29;96953.94;4965417;28;20050;-74
2022/10/03 10:42:38;;;;;;;9.18;3.42;;;19.10;56.80;;;16.66;89.20;96957.63;4985246;28;20270;-73
2022/10/03 10:45:26;;;;;;;6.68;3.20;;;19.50;55.80;;;16.84;85.75;96955.16;5033368;28;20561;-73
2022/10/03 10:48:38;;;;;;;7.93;3.50;;;20.30;52.70;;;17.56;85.88;96951.47;4975144;28;20085;-72
2022/10/03 10:51:28;;;;;;;6.78;2.75;;;23.60;45.40;;;18.07;86.16;96950.56;4961737;28;20045;-68
2022/10/03 10:54:37;;;;;;;18.60;14.48;;;23.60;45.60;;;18.49;79.68;96942.88;5001852;28;20036;-68
2022/10/03 10:57:44;;;;;;;8.27;4.10;;;23.00;45.80;;;18.94;76.53;96941.66;4950331;28;20146;-69
2022/10/03 11:00:22;;;;;;;8.20;3.80;;;24.90;42.60;;;19.45;81.49;96943.13;4974858;28;20077;-69
2022/10/03 11:03:14;;;;;;;6.30;3.10;;;24.30;42.70;;;19.64;74.53;96937.81;4960999;28;20038;-69
2022/10/03 11:06:25;;;;;;;8.07;3.42;;;23.40;44.50;;;19.60;71.64;96944.63;4976933;28;20065;-67
2022/10/03 11:09:11;;;;;;;9.13;3.17;;;22.50;45.60;;;19.39;72.81;96943.22;4950699;28;20046;-70
2022/10/03 11:12:15;;;;;;;8.45;3.50;;;21.70;47.20;;;19.18;72.06;96933.81;4976177;28;20039;-70
2022/10/03 11:15:01;;;;;;;7.68;3.30;;;21.70;47.60;;;19.11;72.63;96941.09;5016234;28;20041;-72
2022/10/03 11:17:41;;;;;;;22.75;14.18;;;21.80;48.10;;;19.04;75.16;96943.03;4980764;28;20451;-71
2022/10/03 11:20:32;;;;;;;;;;;21.60;49.10;;;18.91;72.44;96936.78;4966490;28;20150;-70
2022/10/03 11:23:36;;;;;;;10.98;3.58;;;21.50;48.30;;;19.20;72.45;96940.56;4962630;28;20439;-70
2022/10/03 11:26:58;;;;;;;6.50;2.58;;;23.50;44.50;;;19.60;71.76;96933.97;4967474;28;20065;-70
2022/10/03 11:29:51;;;;;;;8.63;4.80;;;23.40;44.00;;;19.68;70.23;96934.44;4977138;28;20039;-70
2022/10/03 11:33:10;;;;;;;12.02;6.38;;;22.80;44.80;;;19.58;69.61;96937.69;4965429;28;20042;-73
2022/10/03 11:36:06;;;;;;;8.02;3.60;;;22.20;46.50;;;19.31;70.08;96925.69;4959380;28;20489;-72
2022/10/03 11:38:35;;;;;;;13.23;5.72;;;21.60;47.40;;;19.09;74.79;96933.31;4975533;28;20087;-71
2022/10/03 11:41:31;;;;;;;9.07;3.70;;;21.10;48.80;;;18.88;72.01;96931.91;4962715;28;20043;-70
2022/10/03 11:44:16;;;;;;;8.18;2.97;;;20.90;49.80;;;18.68;71.13;96925.94;4989189;28;20042;-70
2022/10/03 11:47:28;;;;;;;17.13;10.85;;;20.60;49.80;;;18.63;73.49;96934.59;4961501;28;20072;-70
2022/10/03 11:50:43;;;;;;;8.95;3.90;;;20.80;50.60;;;18.89;72.12;96938.03;4962888;28;20031;-72
2022/10/03 11:53:30;;;;;;;11.63;2.90;;;22.60;46.80;;;19.00;71.82;96931.16;4959559;28;20422;-71
2022/10/03 11:56:09;;;;;;;7.55;2.60;;;21.90;47.40;;;18.96;73.53;96928.94;5013464;28;20056;-70
2022/10/03 11:58:52;;;;;;;5.78;2.70;;;21.70;49.00;;;18.87;72.41;96930.25;4963209;28;20058;-71
2022/10/03 12:01:47;;;;;;;7.75;2.55;;;21.20;49.70;;;18.76;72.94;96932.81;5011280;28;20038;-74
2022/10/03 12:04:22;;;;;;;8.90;2.88;;;20.80;49.50;;;18.67;72.29;96929.66;5002716;28;20047;-72
2022/10/03 12:10:26;;;;;;;8.38;2.85;;;22.80;46.10;;;19.55;70.55;96930.13;4996513;28;20383;-70
2022/10/03 12:12:53;;;;;;;6.07;2.70;;;24.00;44.10;;;20.08;73.00;96916.03;4989241;28;20101;-71